createdAt,value
2019-03-30T00:00:20.601Z,16.00
2019-03-30T00:01:20.403Z,16.00
2019-03-30T00:02:20.391Z,16.00
2019-03-30T00:03:20.388Z,16.00
2019-03-30T00:04:20.430Z,16.00
2019-03-30T00:05:22.475Z,16.00
2019-03-30T00:06:20.351Z,16.00
2019-03-30T00:07:20.342Z,16.00
2019-03-30T00:08:20.336Z,16.00
2019-03-30T00:09:20.331Z,16.00
2019-03-30T00:10:20.340Z,16.00
2019-03-30T00:11:20.298Z,16.00
2019-03-30T00:12:23.037Z,16.00
2019-03-30T00:13:20.269Z,16.00
2019-03-30T00:14:20.333Z,16.00
2019-03-30T00:15:20.249Z,16.00
2019-03-30T00:16:20.321Z,16.00
2019-03-30T00:17:20.237Z,16.00
2019-03-30T00:18:20.228Z,16.00
2019-03-30T00:19:34.184Z,16.00
2019-03-30T00:20:21.208Z,16.00
2019-03-30T00:21:20.189Z,16.00
2019-03-30T00:22:21.013Z,16.00
2019-03-30T00:23:21.412Z,16.00
2019-03-30T00:24:20.157Z,16.00
2019-03-30T00:25:20.148Z,16.00
2019-03-30T00:26:20.418Z,16.00
2019-03-30T00:27:20.128Z,16.00
2019-03-30T00:28:20.158Z,16.00
2019-03-30T00:29:20.104Z,16.00
2019-03-30T00:30:20.607Z,16.00
2019-03-30T00:31:20.089Z,16.00
2019-03-30T00:32:20.075Z,16.00
2019-03-30T00:33:20.346Z,16.00
2019-03-30T00:34:20.110Z,16.00
2019-03-30T00:35:20.648Z,16.00
2019-03-30T00:36:20.637Z,16.00
2019-03-30T00:37:20.077Z,16.00
2019-03-30T00:38:20.006Z,16.00
2019-03-30T00:39:20.037Z,16.00
2019-03-30T00:40:20.439Z,16.00
2019-03-30T00:41:19.983Z,16.00
2019-03-30T00:42:19.965Z,16.00
2019-03-30T00:43:19.957Z,16.00
2019-03-30T00:44:20.195Z,16.00
2019-03-30T00:45:19.926Z,16.00
2019-03-30T00:46:19.963Z,16.00
2019-03-30T00:47:20.214Z,16.00
2019-03-30T00:48:19.905Z,16.00
2019-03-30T00:49:20.557Z,16.00
2019-03-30T00:50:19.878Z,16.00
2019-03-30T00:51:19.873Z,16.00
2019-03-30T00:52:19.906Z,16.00
2019-03-30T00:53:20.558Z,16.00
2019-03-30T00:54:20.129Z,16.00
2019-03-30T00:55:19.824Z,16.00
2019-03-30T00:56:19.816Z,16.00
2019-03-30T00:57:19.804Z,16.00
2019-03-30T00:58:19.834Z,16.00
2019-03-30T00:59:19.784Z,16.00
2019-03-30T01:00:19.773Z,16.00
2019-03-30T01:01:19.764Z,16.00
2019-03-30T01:02:19.753Z,16.00
2019-03-30T01:03:19.741Z,16.00
2019-03-30T01:04:19.764Z,16.00
2019-03-30T01:05:19.713Z,16.00
2019-03-30T01:06:19.708Z,16.00
2019-03-30T01:07:19.982Z,16.00
2019-03-30T01:08:19.686Z,16.00
2019-03-30T01:09:19.683Z,16.00
2019-03-30T01:10:19.733Z,16.00
2019-03-30T01:11:19.654Z,16.00
2019-03-30T01:12:19.642Z,16.00
2019-03-30T01:13:19.632Z,16.00
2019-03-30T01:14:19.902Z,16.00
2019-03-30T01:15:19.612Z,16.00
2019-03-30T01:16:19.641Z,16.00
2019-03-30T01:17:19.595Z,16.00
2019-03-30T01:18:19.593Z,16.00
2019-03-30T01:19:19.572Z,16.00
2019-03-30T01:20:19.569Z,16.00
2019-03-30T01:21:19.890Z,16.00
2019-03-30T01:22:19.801Z,16.00
2019-03-30T01:23:19.530Z,16.00
2019-03-30T01:24:19.511Z,16.00
2019-03-30T01:25:19.500Z,16.00
2019-03-30T01:26:19.501Z,16.00
2019-03-30T01:27:19.547Z,16.00
2019-03-30T01:28:19.831Z,16.00
2019-03-30T01:29:19.461Z,16.00
2019-03-30T01:30:23.178Z,16.00
2019-03-30T01:31:19.440Z,16.00
2019-03-30T01:32:19.440Z,16.00
2019-03-30T01:33:19.419Z,16.00
2019-03-30T01:34:19.455Z,16.00
2019-03-30T01:35:19.814Z,16.00
2019-03-30T01:36:19.398Z,16.00
2019-03-30T01:37:19.378Z,16.00
2019-03-30T01:38:19.369Z,16.00
2019-03-30T01:39:19.359Z,16.00
2019-03-30T01:40:19.386Z,16.00
2019-03-30T01:41:19.337Z,16.00
2019-03-30T01:42:19.609Z,16.00
2019-03-30T01:43:19.318Z,16.00
2019-03-30T01:44:19.307Z,16.00
2019-03-30T01:45:19.302Z,16.00
2019-03-30T01:46:19.348Z,16.00
2019-03-30T01:47:19.268Z,16.00
2019-03-30T01:48:19.258Z,16.00
2019-03-30T01:49:19.528Z,16.00
2019-03-30T01:50:19.238Z,16.00
2019-03-30T01:51:19.228Z,16.00
2019-03-30T01:52:19.256Z,16.00
2019-03-30T01:53:19.213Z,16.00
2019-03-30T01:54:19.196Z,16.00
2019-03-30T01:55:19.189Z,16.00
2019-03-30T01:56:19.456Z,16.00
2019-03-30T01:57:19.167Z,16.00
2019-03-30T01:58:19.196Z,16.00
2019-03-30T01:59:19.220Z,16.00
2019-03-30T02:00:19.136Z,16.00
2019-03-30T02:01:19.117Z,16.00
2019-03-30T02:02:19.126Z,16.00
2019-03-30T02:03:19.406Z,16.00
2019-03-30T02:04:19.136Z,16.00
2019-03-30T02:05:19.084Z,16.00
2019-03-30T02:06:19.068Z,16.00
2019-03-30T02:07:19.056Z,16.00
2019-03-30T02:08:19.046Z,16.00
2019-03-30T02:09:19.035Z,16.00
2019-03-30T02:10:19.345Z,16.00
2019-03-30T02:11:19.015Z,16.00
2019-03-30T02:12:19.005Z,16.00
2019-03-30T02:13:18.995Z,16.00
2019-03-30T02:14:19.696Z,16.00
2019-03-30T02:15:18.965Z,16.00
2019-03-30T02:16:18.994Z,16.00
2019-03-30T02:17:20.317Z,16.00
2019-03-30T02:18:18.934Z,16.00
2019-03-30T02:19:18.933Z,16.00
2019-03-30T02:20:30.405Z,16.00
2019-03-30T02:21:20.103Z,16.00
2019-03-30T02:22:18.893Z,16.00
2019-03-30T02:23:18.883Z,16.00
2019-03-30T02:24:18.873Z,16.00
2019-03-30T02:25:18.861Z,16.00
2019-03-30T02:26:18.850Z,16.00
2019-03-30T02:27:18.876Z,16.00
2019-03-30T02:28:18.825Z,16.00
2019-03-30T02:29:19.103Z,16.00
2019-03-30T02:30:18.803Z,16.00
2019-03-30T02:31:18.794Z,16.00
2019-03-30T02:32:18.807Z,16.00
2019-03-30T02:33:18.803Z,16.00
2019-03-30T02:34:18.767Z,16.00
2019-03-30T02:35:18.760Z,16.00
2019-03-30T02:36:18.743Z,16.00
2019-03-30T02:37:18.732Z,16.00
2019-03-30T02:38:18.745Z,16.00
2019-03-30T02:39:19.026Z,16.00
2019-03-30T02:40:18.723Z,16.00
2019-03-30T02:41:19.191Z,16.00
2019-03-30T02:42:18.681Z,16.00
2019-03-30T02:43:18.813Z,16.00
2019-03-30T02:44:18.667Z,16.00
2019-03-30T02:45:18.681Z,16.00
2019-03-30T02:46:18.632Z,16.00
2019-03-30T02:47:18.620Z,16.00
2019-03-30T02:48:19.815Z,16.00
2019-03-30T02:49:18.601Z,16.00
2019-03-30T02:50:18.614Z,16.00
2019-03-30T02:51:18.832Z,16.00
2019-03-30T02:52:18.570Z,16.00
2019-03-30T02:53:18.560Z,16.00
2019-03-30T02:54:18.561Z,16.00
2019-03-30T02:55:18.819Z,16.00
2019-03-30T02:56:18.528Z,16.00
2019-03-30T02:57:18.809Z,16.00
2019-03-30T02:58:18.502Z,16.00
2019-03-30T02:59:18.501Z,16.00
2019-03-30T03:01:49.782Z,16.00
2019-03-30T03:02:49.522Z,16.00
2019-03-30T03:03:49.372Z,16.00
2019-03-30T03:04:49.354Z,16.00
2019-03-30T03:05:49.356Z,16.00
2019-03-30T03:06:49.420Z,16.00
2019-03-30T03:07:50.183Z,16.00
2019-03-30T03:08:49.319Z,16.00
2019-03-30T03:09:49.300Z,16.00
2019-03-30T03:10:49.292Z,16.00
2019-03-30T03:11:49.289Z,16.00
2019-03-30T03:12:49.271Z,16.00
2019-03-30T03:13:49.571Z,16.00
2019-03-30T03:14:49.250Z,16.00
2019-03-30T03:15:49.240Z,16.00
2019-03-30T03:16:49.231Z,16.00
2019-03-30T03:17:49.220Z,16.00
2019-03-30T03:18:49.210Z,16.00
2019-03-30T03:19:49.269Z,16.00
2019-03-30T03:21:06.205Z,16.00
2019-03-30T03:21:50.178Z,16.00
2019-03-30T03:22:49.167Z,16.00
2019-03-30T03:23:49.159Z,16.00
2019-03-30T03:24:49.155Z,16.00
2019-03-30T03:25:49.176Z,16.00
2019-03-30T03:26:49.143Z,16.00
2019-03-30T03:27:49.409Z,16.00
2019-03-30T03:28:49.107Z,16.00
2019-03-30T03:29:49.090Z,16.00
2019-03-30T03:30:49.096Z,16.00
2019-03-30T03:31:49.163Z,16.00
2019-03-30T03:32:49.849Z,16.00
2019-03-30T03:33:49.060Z,16.00
2019-03-30T03:34:49.490Z,16.00
2019-03-30T03:35:49.048Z,16.00
2019-03-30T03:36:49.041Z,16.00
2019-03-30T03:37:49.079Z,16.00
2019-03-30T03:38:49.235Z,16.00
2019-03-30T03:39:49.337Z,16.00
2019-03-30T03:40:49.127Z,16.00
2019-03-30T03:41:49.673Z,16.00
2019-03-30T03:42:49.429Z,16.00
2019-03-30T03:43:49.367Z,16.00
2019-03-30T03:44:48.937Z,16.00
2019-03-30T03:45:48.927Z,16.00
2019-03-30T03:46:48.920Z,16.00
2019-03-30T03:47:49.014Z,16.00
2019-03-30T03:48:49.207Z,16.00
2019-03-30T03:49:48.935Z,16.00
2019-03-30T03:50:49.439Z,20.00
2019-03-30T03:51:48.869Z,16.00
2019-03-30T03:52:48.867Z,16.00
2019-03-30T03:53:48.845Z,16.00
2019-03-30T03:54:48.833Z,16.00
2019-03-30T03:55:49.177Z,16.00
2019-03-30T03:56:48.825Z,16.00
2019-03-30T03:57:48.807Z,16.00
2019-03-30T03:58:48.962Z,16.00
2019-03-30T03:59:48.774Z,16.00
2019-03-30T04:00:48.773Z,16.00
2019-03-30T04:01:49.104Z,16.00
2019-03-30T04:02:48.754Z,16.00
2019-03-30T04:03:48.748Z,16.00
2019-03-30T04:04:48.963Z,16.00
2019-03-30T04:05:48.726Z,16.00
2019-03-30T04:06:48.733Z,16.00
2019-03-30T04:07:49.033Z,16.00
2019-03-30T04:08:48.683Z,16.00
2019-03-30T04:09:48.683Z,16.00
2019-03-30T04:10:48.786Z,16.00
2019-03-30T04:11:48.661Z,16.00
2019-03-30T04:12:48.651Z,16.00
2019-03-30T04:13:49.233Z,16.00
2019-03-30T04:14:48.664Z,16.00
2019-03-30T04:15:48.628Z,16.00
2019-03-30T04:16:48.603Z,16.00
2019-03-30T04:17:48.622Z,16.00
2019-03-30T04:18:48.726Z,16.00
2019-03-30T04:19:48.629Z,16.00
2019-03-30T04:20:48.572Z,16.00
2019-03-30T04:21:48.572Z,16.00
2019-03-30T04:22:48.591Z,16.00
2019-03-30T04:23:48.554Z,16.00
2019-03-30T04:24:48.528Z,16.00
2019-03-30T04:25:48.851Z,16.00
2019-03-30T04:26:48.510Z,16.00
2019-03-30T04:27:48.491Z,16.00
2019-03-30T04:28:48.490Z,16.00
2019-03-30T04:29:48.475Z,16.00
2019-03-30T04:30:48.460Z,16.00
2019-03-30T04:31:48.798Z,16.00
2019-03-30T04:32:48.449Z,16.00
2019-03-30T04:33:48.433Z,16.00
2019-03-30T04:34:48.431Z,20.00
2019-03-30T04:35:48.410Z,20.00
2019-03-30T04:36:48.473Z,20.00
2019-03-30T04:37:48.433Z,20.00
2019-03-30T04:38:48.670Z,20.00
2019-03-30T04:39:48.394Z,20.00
2019-03-30T04:40:48.385Z,20.00
2019-03-30T04:41:48.348Z,24.00
2019-03-30T04:42:48.338Z,20.00
2019-03-30T04:43:48.368Z,24.00
2019-03-30T04:44:48.318Z,24.00
2019-03-30T04:45:48.600Z,24.00
2019-03-30T04:46:48.296Z,24.00
2019-03-30T04:47:48.288Z,24.00
2019-03-30T04:48:48.276Z,28.00
2019-03-30T04:49:48.309Z,32.00
2019-03-30T04:50:48.270Z,36.00
2019-03-30T04:51:57.440Z,40.00
2019-03-30T04:52:49.249Z,40.00
2019-03-30T04:53:48.226Z,48.00
2019-03-30T04:54:48.214Z,48.00
2019-03-30T04:55:48.239Z,56.00
2019-03-30T04:56:48.202Z,60.00
2019-03-30T04:57:49.827Z,64.00
2019-03-30T04:58:48.456Z,72.00
2019-03-30T04:59:48.176Z,80.00
2019-03-30T05:00:48.153Z,84.00
2019-03-30T05:01:48.166Z,96.00
2019-03-30T05:02:48.136Z,104.00
2019-03-30T05:03:49.580Z,100.00
2019-03-30T05:04:48.107Z,112.00
2019-03-30T05:05:48.375Z,124.00
2019-03-30T05:06:48.098Z,136.00
2019-03-30T05:07:48.134Z,152.00
2019-03-30T05:08:48.071Z,164.00
2019-03-30T05:09:48.060Z,180.00
2019-03-30T05:10:48.055Z,196.00
2019-03-30T05:11:48.034Z,212.00
2019-03-30T05:12:48.330Z,228.00
2019-03-30T05:13:48.055Z,248.00
2019-03-30T05:14:48.014Z,268.00
2019-03-30T05:15:48.003Z,292.00
2019-03-30T05:16:47.995Z,316.00
2019-03-30T05:17:48.231Z,336.00
2019-03-30T05:18:47.963Z,360.00
2019-03-30T05:19:48.973Z,388.00
2019-03-30T05:20:47.951Z,416.00
2019-03-30T05:21:47.934Z,436.00
2019-03-30T05:22:51.098Z,452.00
2019-03-30T05:23:47.925Z,468.00
2019-03-30T05:24:47.912Z,496.00
2019-03-30T05:25:47.960Z,524.00
2019-03-30T05:26:48.172Z,552.00
2019-03-30T05:27:47.875Z,580.00
2019-03-30T05:28:47.863Z,608.00
2019-03-30T05:29:47.860Z,636.00
2019-03-30T05:30:47.845Z,672.00
2019-03-30T05:31:48.261Z,712.00
2019-03-30T05:32:47.828Z,728.00
2019-03-30T05:33:48.124Z,748.00
2019-03-30T05:34:47.813Z,776.00
2019-03-30T05:35:47.791Z,816.00
2019-03-30T05:36:47.787Z,856.00
2019-03-30T05:37:47.801Z,892.00
2019-03-30T05:38:47.760Z,896.00
2019-03-30T05:39:47.754Z,964.00
2019-03-30T05:40:48.050Z,1000.00
2019-03-30T05:41:47.734Z,1036.00
2019-03-30T05:42:47.717Z,1072.00
2019-03-30T05:43:47.990Z,1104.00
2019-03-30T05:44:47.699Z,1144.00
2019-03-30T05:45:47.697Z,1180.00
2019-03-30T05:46:47.679Z,1220.00
2019-03-30T05:47:49.169Z,1256.00
2019-03-30T05:48:47.656Z,1288.00
2019-03-30T05:49:47.687Z,1324.00
2019-03-30T05:50:47.647Z,1356.00
2019-03-30T05:51:47.626Z,1380.00
2019-03-30T05:52:47.633Z,1420.00
2019-03-30T05:53:47.608Z,1452.00
2019-03-30T05:54:47.598Z,1484.00
2019-03-30T05:55:47.617Z,1520.00
2019-03-30T05:56:47.575Z,1556.00
2019-03-30T05:57:47.575Z,1588.00
2019-03-30T05:58:47.558Z,1620.00
2019-03-30T05:59:47.546Z,1648.00
2019-03-30T06:00:48.017Z,1676.00
2019-03-30T06:01:47.668Z,1660.00
2019-03-30T06:02:47.507Z,1692.00
2019-03-30T06:03:47.497Z,1720.00
2019-03-30T06:04:47.498Z,1768.00
2019-03-30T06:05:48.396Z,1844.00
2019-03-30T06:06:47.869Z,1876.00
2019-03-30T06:07:47.497Z,1908.00
2019-03-30T06:08:47.458Z,1944.00
2019-03-30T06:09:47.437Z,1956.00
2019-03-30T06:10:47.426Z,2000.00
2019-03-30T06:11:47.419Z,2040.00
2019-03-30T06:12:47.424Z,2068.00
2019-03-30T06:13:47.441Z,2096.00
2019-03-30T06:14:47.390Z,2124.00
2019-03-30T06:15:47.377Z,2164.00
2019-03-30T06:16:47.466Z,2192.00
2019-03-30T06:17:47.373Z,2220.00
2019-03-30T06:18:47.748Z,2260.00
2019-03-30T06:19:47.542Z,2332.00
2019-03-30T06:20:47.325Z,2412.00
2019-03-30T06:21:47.315Z,2536.00
2019-03-30T06:22:47.311Z,2800.00
2019-03-30T06:23:48.756Z,3176.00
2019-03-30T06:24:47.284Z,3508.00
2019-03-30T06:25:48.661Z,3732.00
2019-03-30T06:26:47.265Z,3828.00
2019-03-30T06:27:47.244Z,3908.00
2019-03-30T06:28:47.244Z,3948.00
2019-03-30T06:29:47.262Z,4004.00
2019-03-30T06:30:47.225Z,4052.00
2019-03-30T06:31:47.684Z,4120.00
2019-03-30T06:32:47.199Z,4200.00
2019-03-30T06:33:47.193Z,4276.00
2019-03-30T06:34:47.182Z,4344.00
2019-03-30T06:35:47.166Z,4416.00
2019-03-30T06:36:47.161Z,4464.00
2019-03-30T06:37:47.472Z,4512.00
2019-03-30T06:38:47.492Z,4556.00
2019-03-30T06:39:47.253Z,4612.00
2019-03-30T06:40:47.339Z,4740.00
2019-03-30T06:41:48.212Z,4804.00
2019-03-30T06:42:47.115Z,4900.00
2019-03-30T06:43:47.945Z,4892.00
2019-03-30T06:44:47.074Z,4960.00
2019-03-30T06:45:47.065Z,5020.00
2019-03-30T06:46:47.069Z,5064.00
2019-03-30T06:47:47.042Z,5112.00
2019-03-30T06:48:47.043Z,5188.00
2019-03-30T06:49:47.072Z,5240.00
2019-03-30T06:50:47.022Z,5284.00
2019-03-30T06:51:47.001Z,5356.00
2019-03-30T06:52:57.482Z,5392.00
2019-03-30T06:53:47.980Z,5452.00
2019-03-30T06:54:46.972Z,5476.00
2019-03-30T06:55:47.023Z,5528.00
2019-03-30T06:56:48.392Z,5588.00
2019-03-30T06:57:47.220Z,5632.00
2019-03-30T06:58:46.923Z,5724.00
2019-03-30T06:59:46.910Z,5748.00
2019-03-30T07:00:46.910Z,5776.00
2019-03-30T07:01:46.943Z,5844.00
2019-03-30T07:02:46.889Z,5928.00
2019-03-30T07:03:47.361Z,5976.00
2019-03-30T07:04:46.885Z,6028.00
2019-03-30T07:05:46.869Z,6088.00
2019-03-30T07:06:46.849Z,6144.00
2019-03-30T07:07:46.919Z,6380.00
2019-03-30T07:08:46.822Z,6324.00
2019-03-30T07:09:48.176Z,6388.00
2019-03-30T07:10:46.821Z,6488.00
2019-03-30T07:11:46.788Z,6552.00
2019-03-30T07:12:46.778Z,6624.00
2019-03-30T07:13:46.808Z,6712.00
2019-03-30T07:14:46.759Z,6800.00
2019-03-30T07:15:46.749Z,6888.00
2019-03-30T07:16:46.738Z,6948.00
2019-03-30T07:17:46.729Z,7052.00
2019-03-30T07:18:46.721Z,7136.00
2019-03-30T07:19:46.739Z,7228.00
2019-03-30T07:20:46.698Z,7328.00
2019-03-30T07:21:46.970Z,7744.00
2019-03-30T07:22:46.703Z,7548.00
2019-03-30T07:23:46.971Z,7644.00
2019-03-30T07:24:46.657Z,7872.00
2019-03-30T07:25:46.667Z,8020.00
2019-03-30T07:26:46.637Z,8200.00
2019-03-30T07:27:46.626Z,8332.00
2019-03-30T07:28:47.409Z,8476.00
2019-03-30T07:29:46.602Z,8592.00
2019-03-30T07:30:46.618Z,8732.00
2019-03-30T07:31:46.936Z,8864.00
2019-03-30T07:32:46.604Z,8980.00
2019-03-30T07:33:46.585Z,9116.00
2019-03-30T07:34:46.589Z,9276.00
2019-03-30T07:35:46.895Z,9380.00
2019-03-30T07:36:46.544Z,9488.00
2019-03-30T07:37:46.546Z,9612.00
2019-03-30T07:38:46.514Z,9804.00
2019-03-30T07:39:46.499Z,10060.00
2019-03-30T07:40:46.487Z,10316.00
2019-03-30T07:41:46.476Z,10580.00
2019-03-30T07:42:46.986Z,10816.00
2019-03-30T07:43:46.575Z,11032.00
2019-03-30T07:44:46.443Z,10808.00
2019-03-30T07:45:46.438Z,11456.00
2019-03-30T07:46:46.425Z,11492.00
2019-03-30T07:47:47.236Z,11688.00
2019-03-30T07:48:46.403Z,11956.00
2019-03-30T07:49:46.485Z,12176.00
2019-03-30T07:50:46.656Z,12420.00
2019-03-30T07:51:46.647Z,12528.00
2019-03-30T07:52:46.996Z,12672.00
2019-03-30T07:53:46.725Z,12848.00
2019-03-30T07:54:47.654Z,13048.00
2019-03-30T07:55:46.365Z,13208.00
2019-03-30T07:56:46.834Z,13396.00
2019-03-30T07:57:46.324Z,13564.00
2019-03-30T07:58:46.294Z,13780.00
2019-03-30T07:59:46.288Z,14004.00
2019-03-30T08:00:46.966Z,14248.00
2019-03-30T08:01:50.049Z,16928.00
2019-03-30T08:02:46.493Z,15600.00
2019-03-30T08:03:47.616Z,20288.00
2019-03-30T08:04:46.638Z,25184.00
2019-03-30T08:05:46.664Z,25504.00
2019-03-30T08:06:46.236Z,25728.00
2019-03-30T08:07:46.696Z,30144.00
2019-03-30T08:08:46.195Z,33536.00
2019-03-30T08:09:46.746Z,32800.00
2019-03-30T08:10:46.230Z,40032.00
2019-03-30T08:11:46.400Z,49408.00
2019-03-30T08:12:46.152Z,46688.00
2019-03-30T08:13:47.834Z,33728.00
2019-03-30T08:14:46.153Z,24960.00
2019-03-30T08:15:47.166Z,22592.00
2019-03-30T08:16:46.133Z,21952.00
2019-03-30T08:17:46.140Z,20928.00
2019-03-30T08:18:46.235Z,20128.00
2019-03-30T08:19:47.797Z,19680.00
2019-03-30T08:20:46.840Z,19360.00
2019-03-30T08:21:46.543Z,20032.00
2019-03-30T08:22:46.833Z,18912.00
2019-03-30T08:23:46.847Z,18912.00
2019-03-30T08:24:46.023Z,18944.00
2019-03-30T08:25:46.594Z,18912.00
2019-03-30T08:26:46.003Z,18848.00
2019-03-30T08:27:46.066Z,19040.00
2019-03-30T08:28:45.984Z,19296.00
2019-03-30T08:29:46.209Z,19776.00
2019-03-30T08:30:45.956Z,19968.00
2019-03-30T08:31:45.995Z,19776.00
2019-03-30T08:32:45.965Z,21408.00
2019-03-30T08:33:45.955Z,28608.00
2019-03-30T08:34:45.950Z,36992.00
2019-03-30T08:35:46.176Z,39776.00
2019-03-30T08:36:45.905Z,40352.00
2019-03-30T08:37:46.395Z,42592.00
2019-03-30T08:38:45.881Z,44864.00
2019-03-30T08:39:45.870Z,46112.00
2019-03-30T08:40:45.858Z,46912.00
2019-03-30T08:41:45.845Z,47968.00
2019-03-30T08:42:45.839Z,48096.00
2019-03-30T08:43:46.526Z,47552.00
2019-03-30T08:44:46.212Z,49344.00
2019-03-30T08:45:48.804Z,52032.00
2019-03-30T08:46:45.844Z,52384.00
2019-03-30T08:47:45.777Z,52512.00
2019-03-30T08:48:45.766Z,53216.00
2019-03-30T08:49:45.877Z,55008.00
2019-03-30T08:50:45.759Z,57824.00
2019-03-30T08:51:46.449Z,58400.00
2019-03-30T08:52:45.813Z,58656.00
2019-03-30T08:53:54.594Z,56128.00
2019-03-30T08:54:46.729Z,54304.00
2019-03-30T08:55:45.915Z,54304.00
2019-03-30T08:56:45.698Z,56256.00
2019-03-30T08:57:45.772Z,57504.00
2019-03-30T08:58:47.274Z,56640.00
2019-03-30T08:59:45.657Z,57088.00
2019-03-30T09:00:45.652Z,58592.00
2019-03-30T09:01:45.967Z,57632.00
2019-03-30T09:02:45.718Z,52864.00
2019-03-30T09:03:45.719Z,51392.00
2019-03-30T09:04:46.168Z,47584.00
2019-03-30T09:05:46.249Z,32928.00
2019-03-30T09:06:45.601Z,16736.00
2019-03-30T09:07:45.718Z,8612.00
2019-03-30T09:08:45.646Z,8508.00
2019-03-30T09:09:45.605Z,8512.00
2019-03-30T09:10:45.547Z,8512.00
2019-03-30T09:11:45.528Z,8504.00
2019-03-30T09:12:46.128Z,8540.00
2019-03-30T09:13:45.736Z,8560.00
2019-03-30T09:14:45.648Z,8584.00
2019-03-30T09:15:45.489Z,8616.00
2019-03-30T09:16:46.219Z,8680.00
2019-03-30T09:17:46.241Z,8656.00
2019-03-30T09:18:45.465Z,8740.00
2019-03-30T09:19:46.145Z,8752.00
2019-03-30T09:20:46.599Z,8816.00
2019-03-30T09:21:46.679Z,8780.00
2019-03-30T09:22:45.838Z,8832.00
2019-03-30T09:23:47.658Z,8844.00
2019-03-30T09:24:49.120Z,8876.00
2019-03-30T09:25:46.006Z,8808.00
2019-03-30T09:26:45.376Z,8868.00
2019-03-30T09:27:45.429Z,8864.00
2019-03-30T09:28:45.942Z,8852.00
2019-03-30T09:29:45.761Z,8952.00
2019-03-30T09:30:47.227Z,8916.00
2019-03-30T09:31:45.528Z,8964.00
2019-03-30T09:32:46.422Z,9012.00
2019-03-30T09:33:45.356Z,8992.00
2019-03-30T09:34:45.296Z,9068.00
2019-03-30T09:35:45.291Z,9088.00
2019-03-30T09:36:45.474Z,9076.00
2019-03-30T09:37:45.447Z,9116.00
2019-03-30T09:38:45.312Z,9156.00
2019-03-30T09:39:46.409Z,9188.00
2019-03-30T09:40:47.928Z,9184.00
2019-03-30T09:41:48.383Z,9100.00
2019-03-30T09:42:46.229Z,9140.00
2019-03-30T09:43:47.524Z,9184.00
2019-03-30T09:44:45.418Z,9216.00
2019-03-30T09:45:45.624Z,9224.00
2019-03-30T09:46:45.173Z,9276.00
2019-03-30T09:47:45.738Z,9252.00
2019-03-30T09:48:45.606Z,9360.00
2019-03-30T09:49:45.268Z,9424.00
2019-03-30T09:50:45.746Z,9348.00
2019-03-30T09:51:45.314Z,9440.00
2019-03-30T09:52:45.935Z,9460.00
2019-03-30T09:53:45.658Z,9432.00
2019-03-30T09:54:46.398Z,9468.00
2019-03-30T09:55:46.056Z,9484.00
2019-03-30T09:56:45.788Z,9700.00
2019-03-30T09:57:45.929Z,9752.00
2019-03-30T09:58:45.609Z,9800.00
2019-03-30T09:59:50.620Z,9884.00
2019-03-30T10:00:45.680Z,9964.00
2019-03-30T10:01:46.107Z,10076.00
2019-03-30T10:02:47.657Z,10012.00
2019-03-30T10:03:46.038Z,10208.00
2019-03-30T10:04:46.749Z,10256.00
2019-03-30T10:05:46.629Z,10292.00
2019-03-30T10:06:46.379Z,10400.00
2019-03-30T10:07:46.152Z,10428.00
2019-03-30T10:08:46.167Z,10460.00
2019-03-30T10:09:47.386Z,10624.00
2019-03-30T10:10:44.922Z,10724.00
2019-03-30T10:11:45.027Z,10824.00
2019-03-30T10:12:46.188Z,10792.00
2019-03-30T10:13:45.089Z,10980.00
2019-03-30T10:14:44.868Z,10916.00
2019-03-30T10:15:44.850Z,11052.00
2019-03-30T10:16:44.848Z,11272.00
2019-03-30T10:17:44.868Z,11380.00
2019-03-30T10:18:44.839Z,11548.00
2019-03-30T10:19:48.285Z,11384.00
2019-03-30T10:20:45.817Z,11576.00
2019-03-30T10:21:46.480Z,11696.00
2019-03-30T10:22:45.269Z,11944.00
2019-03-30T10:23:44.787Z,12208.00
2019-03-30T10:24:45.999Z,12508.00
2019-03-30T10:25:45.461Z,12740.00
2019-03-30T10:26:46.732Z,15580.00
2019-03-30T10:27:45.962Z,35840.00
2019-03-30T10:28:47.615Z,63328.00
2019-03-30T10:29:46.731Z,71744.00
2019-03-30T10:30:46.747Z,71168.00
2019-03-30T10:31:46.228Z,69056.00
2019-03-30T10:32:45.228Z,69472.00
2019-03-30T10:33:47.054Z,69056.00
2019-03-30T10:34:44.891Z,68608.00
2019-03-30T10:35:44.930Z,67520.00
2019-03-30T10:36:44.641Z,67872.00
2019-03-30T10:37:45.906Z,69984.00
2019-03-30T10:38:45.114Z,72576.00
2019-03-30T10:39:44.998Z,76448.00
2019-03-30T10:40:45.044Z,77888.00
2019-03-30T10:41:44.947Z,77632.00
2019-03-30T10:42:47.621Z,79136.00
2019-03-30T10:43:45.420Z,79520.00
2019-03-30T10:44:45.472Z,78720.00
2019-03-30T10:45:44.979Z,79424.00
2019-03-30T10:46:45.008Z,79232.00
2019-03-30T10:47:45.709Z,80480.00
2019-03-30T10:48:45.387Z,82560.00
2019-03-30T10:49:46.502Z,82720.00
2019-03-30T10:50:45.489Z,80352.00
2019-03-30T10:51:45.094Z,74912.00
2019-03-30T10:52:44.843Z,68640.00
2019-03-30T10:53:46.698Z,72320.00
2019-03-30T10:54:52.549Z,77376.00
2019-03-30T10:55:46.163Z,79360.00
2019-03-30T10:56:45.212Z,80352.00
2019-03-30T10:57:44.824Z,79136.00
2019-03-30T10:58:45.764Z,79072.00
2019-03-30T10:59:44.478Z,78112.00
2019-03-30T11:00:45.416Z,78752.00
2019-03-30T11:01:45.674Z,80672.00
2019-03-30T11:02:45.141Z,79104.00
2019-03-30T11:03:44.771Z,80160.00
2019-03-30T11:04:45.032Z,80864.00
2019-03-30T11:05:44.373Z,79584.00
2019-03-30T11:06:44.361Z,75616.00
2019-03-30T11:07:44.483Z,74784.00
2019-03-30T11:08:44.312Z,79936.00
2019-03-30T11:09:44.748Z,87968.00
2019-03-30T11:10:45.802Z,86944.00
2019-03-30T11:11:44.330Z,81792.00
2019-03-30T11:12:44.843Z,77856.00
2019-03-30T11:13:45.013Z,82880.00
2019-03-30T11:14:45.008Z,85280.00
2019-03-30T11:15:44.584Z,88448.00
2019-03-30T11:16:44.273Z,89952.00
2019-03-30T11:17:44.734Z,88896.00
2019-03-30T11:18:44.426Z,87040.00
2019-03-30T11:19:45.646Z,88064.00
2019-03-30T11:20:44.276Z,92704.00
2019-03-30T11:21:44.220Z,93472.00
2019-03-30T11:22:46.682Z,94720.00
2019-03-30T11:23:44.649Z,96992.00
2019-03-30T11:24:44.203Z,96384.00
2019-03-30T11:25:44.776Z,95008.00
2019-03-30T11:26:44.494Z,93504.00
2019-03-30T11:27:45.272Z,90080.00
2019-03-30T11:28:46.996Z,90624.00
2019-03-30T11:29:45.321Z,90144.00
2019-03-30T11:30:44.757Z,90016.00
2019-03-30T11:31:44.377Z,88320.00
2019-03-30T11:32:47.085Z,88096.00
2019-03-30T11:33:45.087Z,87616.00
2019-03-30T11:34:44.719Z,90112.00
2019-03-30T11:35:44.153Z,91968.00
2019-03-30T11:36:44.936Z,92384.00
2019-03-30T11:37:44.954Z,92096.00
2019-03-30T11:38:46.945Z,92480.00
2019-03-30T11:39:44.981Z,95808.00
2019-03-30T11:40:45.204Z,94592.00
2019-03-30T11:41:44.627Z,60608.00
2019-03-30T11:42:45.096Z,19040.00
2019-03-30T11:43:45.436Z,94176.00
2019-03-30T11:44:45.522Z,32000.00
2019-03-30T11:45:45.747Z,21504.00
2019-03-30T11:46:44.959Z,52224.00
2019-03-30T11:47:44.331Z,93792.00
2019-03-30T11:48:43.944Z,94720.00
2019-03-30T11:49:44.051Z,95136.00
2019-03-30T11:50:44.099Z,96224.00
2019-03-30T11:51:43.918Z,38976.00
2019-03-30T11:52:45.474Z,96320.00
2019-03-30T11:53:57.649Z,16328.00
2019-03-30T11:54:50.781Z,98208.00
2019-03-30T11:55:46.136Z,47424.00
2019-03-30T11:56:44.433Z,97760.00
2019-03-30T11:57:44.808Z,96032.00
2019-03-30T11:58:47.019Z,33600.00
2019-03-30T11:59:44.299Z,12428.00
2019-03-30T12:00:45.591Z,13136.00
2019-03-30T12:01:44.569Z,92128.00
2019-03-30T12:02:43.893Z,94144.00
2019-03-30T12:03:43.783Z,96576.00
2019-03-30T12:04:43.832Z,17952.00
2019-03-30T12:05:44.210Z,16992.00
2019-03-30T12:06:43.751Z,15364.00
2019-03-30T12:07:44.142Z,13064.00
2019-03-30T12:08:43.773Z,12884.00
2019-03-30T12:09:44.140Z,12592.00
2019-03-30T12:10:44.810Z,15324.00
2019-03-30T12:11:45.281Z,11516.00
2019-03-30T12:12:44.380Z,41152.00
2019-03-30T12:13:45.141Z,41280.00
2019-03-30T12:14:45.265Z,88704.00
2019-03-30T12:15:43.935Z,56704.00
2019-03-30T12:16:44.154Z,36032.00
2019-03-30T12:17:44.042Z,89696.00
2019-03-30T12:18:43.771Z,88608.00
2019-03-30T12:19:45.642Z,86176.00